Time;durP1;ratioP1;P1;durP2;ratioP2;P2;SDS_P1;SDS_P2;PMS_P1;PMS_P2;Temp;Humidity;BMP_temperature;BMP_pressure;BME280_temperature;BME280_humidity;BME280_pressure;Samples;Min_cycle;Max_cycle;Signal;HPM_P1;HPM_P2
2023/04/22 00:02:13;;;;;;;9.60;8.60;;;;;;;;;;5036726;28;20224;-79
2023/04/22 00:04:40;;;;;;;9.47;8.63;;;;;;;;;;5053354;28;20283;-79
2023/04/22 00:07:06;;;;;;;9.90;8.90;;;;;;;;;;5036867;28;20186;-78
2023/04/22 00:09:32;;;;;;;10.30;9.07;;;;;;;;;;5053539;28;20186;-80
2023/04/22 00:11:58;;;;;;;10.03;9.13;;;;;;;;;;5037115;28;20184;-80
2023/04/22 00:14:24;;;;;;;11.77;10.57;;;;;;;;;;5044022;28;20195;-80
2023/04/22 00:16:50;;;;;;;14.63;12.27;;;;;;;;;;5041925;28;20192;-80
2023/04/22 00:19:16;;;;;;;15.50;11.83;;;;;;;;;;5025415;28;20193;-81
2023/04/22 00:21:42;;;;;;;12.53;10.90;;;;;;;;;;5028062;28;20215;-81
2023/04/22 00:24:08;;;;;;;11.90;10.50;;;;;;;;;;5036876;28;20187;-81
2023/04/22 00:26:34;;;;;;;11.60;10.27;;;;;;;;;;5036738;28;20220;-81
2023/04/22 00:29:00;;;;;;;11.23;10.13;;;;;;;;;;5053133;28;20175;-82
2023/04/22 00:31:27;;;;;;;11.17;9.13;;;;;;;;;;5033699;28;20188;-81
2023/04/22 00:33:53;;;;;;;10.93;9.33;;;;;;;;;;5017145;28;20236;-81
2023/04/22 00:36:19;;;;;;;9.93;8.90;;;;;;;;;;5046115;28;20187;-81
2023/04/22 00:38:48;;;;;;;10.27;9.27;;;;;;;;;;5033548;28;20177;-82
2023/04/22 00:41:15;;;;;;;10.03;9.03;;;;;;;;;;5048023;28;20192;-82
2023/04/22 00:43:41;;;;;;;10.83;9.83;;;;;;;;;;5036787;28;20191;-82
2023/04/22 00:46:07;;;;;;;11.20;9.40;;;;;;;;;;5036135;28;20206;-81
2023/04/22 00:48:33;;;;;;;9.27;8.40;;;;;;;;;;5052870;28;20180;-81
2023/04/22 00:50:59;;;;;;;9.70;8.70;;;;;;;;;;5035987;28;20275;-81
2023/04/22 00:53:25;;;;;;;9.50;8.60;;;;;;;;;;5036199;28;20272;-81
2023/04/22 00:55:51;;;;;;;9.73;8.73;;;;;;;;;;5053195;28;20176;-81
2023/04/22 00:58:18;;;;;;;10.13;8.77;;;;;;;;;;5053872;28;20176;-78
2023/04/22 01:00:44;;;;;;;10.47;9.40;;;;;;;;;;5052202;28;20243;-77
2023/04/22 01:03:11;;;;;;;9.93;9.03;;;;;;;;;;5053227;28;20234;-77
2023/04/22 01:05:38;;;;;;;10.47;9.53;;;;;;;;;;5035717;28;20184;-77
2023/04/22 01:08:04;;;;;;;9.87;8.87;;;;;;;;;;5053875;28;20172;-80
2023/04/22 01:10:30;;;;;;;10.03;9.00;;;;;;;;;;5052878;28;20184;-80
2023/04/22 01:12:56;;;;;;;9.33;8.43;;;;;;;;;;5053623;28;20183;-80
2023/04/22 01:15:22;;;;;;;10.33;9.43;;;;;;;;;;5058253;23;20231;-78
2023/04/22 01:17:48;;;;;;;9.77;8.83;;;;;;;;;;5036056;28;20180;-78
2023/04/22 01:20:14;;;;;;;9.83;8.60;;;;;;;;;;5037890;28;20210;-78
2023/04/22 01:22:41;;;;;;;10.10;8.97;;;;;;;;;;5038825;28;20211;-78
2023/04/22 01:25:08;;;;;;;9.83;8.90;;;;;;;;;;5066815;28;20198;-78
2023/04/22 01:27:35;;;;;;;10.70;9.70;;;;;;;;;;5047105;28;20271;-78
2023/04/22 01:30:01;;;;;;;10.37;8.83;;;;;;;;;;5035179;28;20180;-78
2023/04/22 01:32:29;;;;;;;10.27;9.37;;;;;;;;;;5035343;28;20244;-78
2023/04/22 01:34:55;;;;;;;11.50;10.30;;;;;;;;;;5049131;28;20175;-78
2023/04/22 01:37:21;;;;;;;10.03;8.97;;;;;;;;;;5050309;28;20262;-78
2023/04/22 01:39:47;;;;;;;11.33;9.50;;;;;;;;;;5044310;28;20228;-78
2023/04/22 01:42:14;;;;;;;11.23;10.00;;;;;;;;;;5030881;28;20207;-78
2023/04/22 01:44:40;;;;;;;10.00;9.10;;;;;;;;;;5050068;28;20202;-78
2023/04/22 01:47:06;;;;;;;10.17;9.17;;;;;;;;;;5067563;28;20184;-78
2023/04/22 01:49:32;;;;;;;10.20;9.20;;;;;;;;;;5045016;28;20218;-80
2023/04/22 01:51:59;;;;;;;10.37;9.37;;;;;;;;;;5048549;28;20200;-80
2023/04/22 01:54:25;;;;;;;11.50;9.23;;;;;;;;;;5050027;28;20294;-80
2023/04/22 01:56:52;;;;;;;10.63;9.50;;;;;;;;;;5045696;28;20218;-80
2023/04/22 01:59:19;;;;;;;11.23;10.13;;;;;;;;;;5085955;28;20187;-80
2023/04/22 02:01:45;;;;;;;11.47;9.73;;;;;;;;;;5038918;28;20207;-81
2023/04/22 02:04:11;;;;;;;10.40;9.33;;;;;;;;;;5056212;28;20182;-77
2023/04/22 02:06:37;;;;;;;10.83;9.73;;;;;;;;;;5052411;28;20187;-77
2023/04/22 02:09:03;;;;;;;10.03;9.07;;;;;;;;;;5035820;28;20188;-77
2023/04/22 02:11:29;;;;;;;11.67;9.27;;;;;;;;;;5042824;28;20241;-77
2023/04/22 02:13:55;;;;;;;10.53;9.50;;;;;;;;;;5043205;28;20186;-77
2023/04/22 02:16:22;;;;;;;11.03;9.93;;;;;;;;;;5055434;28;20301;-77
2023/04/22 02:18:48;;;;;;;12.00;10.70;;;;;;;;;;5056080;28;20184;-77
2023/04/22 02:21:14;;;;;;;11.40;10.20;;;;;;;;;;5055875;28;20200;-77
2023/04/22 02:23:40;;;;;;;12.27;10.00;;;;;;;;;;5055736;28;20258;-77
2023/04/22 02:26:07;;;;;;;12.83;11.00;;;;;;;;;;5039761;28;20186;-77
2023/04/22 02:28:33;;;;;;;12.80;10.93;;;;;;;;;;5056010;28;20188;-76
2023/04/22 02:30:59;;;;;;;12.83;11.57;;;;;;;;;;5055472;28;20195;-77
2023/04/22 02:33:25;;;;;;;12.07;10.87;;;;;;;;;;5055982;28;20187;-77
2023/04/22 02:35:51;;;;;;;12.50;11.30;;;;;;;;;;5039101;28;20203;-77
2023/04/22 02:38:18;;;;;;;14.57;11.90;;;;;;;;;;5056622;28;20187;-80
2023/04/22 02:40:44;;;;;;;15.00;12.83;;;;;;;;;;5038885;28;20192;-80
2023/04/22 02:43:10;;;;;;;14.83;13.30;;;;;;;;;;5038892;28;20187;-80
2023/04/22 02:45:37;;;;;;;18.00;15.53;;;;;;;;;;5055569;28;20183;-81
2023/04/22 02:48:03;;;;;;;17.10;13.80;;;;;;;;;;5055257;28;20184;-81
2023/04/22 02:50:29;;;;;;;17.00;15.17;;;;;;;;;;5039082;28;20183;-81
2023/04/22 02:52:55;;;;;;;17.73;15.83;;;;;;;;;;5038725;28;20192;-80
2023/04/22 02:55:23;;;;;;;18.43;16.13;;;;;;;;;;5038885;28;20218;-81
2023/04/22 02:57:49;;;;;;;19.10;16.07;;;;;;;;;;5056478;28;20176;-80
2023/04/22 03:00:15;;;;;;;18.93;16.80;;;;;;;;;;5055483;28;20183;-79
2023/04/22 03:02:41;;;;;;;19.97;17.10;;;;;;;;;;5037362;28;20216;-79
2023/04/22 03:05:08;;;;;;;19.10;17.10;;;;;;;;;;5039011;28;20202;-80
2023/04/22 03:07:35;;;;;;;18.57;16.27;;;;;;;;;;5038975;28;20204;-81
2023/04/22 03:10:01;;;;;;;21.10;17.60;;;;;;;;;;5038543;28;20180;-80
2023/04/22 03:12:27;;;;;;;21.60;18.40;;;;;;;;;;5054876;28;20207;-82
2023/04/22 03:14:53;;;;;;;20.37;18.17;;;;;;;;;;5035646;28;20235;-79
2023/04/22 03:17:19;;;;;;;19.00;17.00;;;;;;;;;;5024835;28;20191;-79
2023/04/22 03:19:45;;;;;;;21.27;17.67;;;;;;;;;;5021210;28;20184;-79
2023/04/22 03:22:11;;;;;;;22.33;18.87;;;;;;;;;;5021385;28;20208;-82
2023/04/22 03:24:37;;;;;;;21.37;19.03;;;;;;;;;;5038536;28;20258;-81
2023/04/22 03:27:04;;;;;;;24.07;20.33;;;;;;;;;;5025218;28;20243;-81
2023/04/22 03:29:30;;;;;;;20.90;18.70;;;;;;;;;;5038698;28;20210;-79
2023/04/22 03:31:56;;;;;;;23.53;19.73;;;;;;;;;;5053365;28;20234;-80
2023/04/22 03:34:22;;;;;;;23.83;20.37;;;;;;;;;;5038620;28;20230;-80
2023/04/22 03:36:48;;;;;;;23.13;20.67;;;;;;;;;;5038114;28;20267;-79
2023/04/22 03:39:14;;;;;;;24.30;21.13;;;;;;;;;;5021750;28;20223;-80
2023/04/22 03:41:40;;;;;;;26.13;21.37;;;;;;;;;;5021876;28;20212;-80
2023/04/22 03:44:06;;;;;;;23.10;20.43;;;;;;;;;;5021672;28;20270;-79
2023/04/22 03:46:33;;;;;;;27.07;21.57;;;;;;;;;;5048631;28;20200;-79
2023/04/22 03:48:59;;;;;;;25.10;21.07;;;;;;;;;;5025330;28;20188;-79
2023/04/22 03:51:25;;;;;;;28.03;22.17;;;;;;;;;;5021307;28;20184;-79
2023/04/22 03:53:51;;;;;;;24.20;21.57;;;;;;;;;;5037689;28;20215;-79
2023/04/22 03:56:17;;;;;;;26.37;22.87;;;;;;;;;;5034267;28;20219;-79
2023/04/22 03:58:43;;;;;;;29.43;24.63;;;;;;;;;;5031518;28;20282;-80
2023/04/22 04:01:10;;;;;;;29.90;25.23;;;;;;;;;;5017343;28;20216;-81
2023/04/22 04:03:36;;;;;;;26.83;22.77;;;;;;;;;;5048735;28;20176;-81
2023/04/22 04:06:02;;;;;;;26.67;23.80;;;;;;;;;;5021209;28;20209;-77
2023/04/22 04:08:28;;;;;;;27.87;24.03;;;;;;;;;;5020893;28;20180;-78
2023/04/22 04:10:54;;;;;;;27.10;24.10;;;;;;;;;;5037384;28;20183;-77
2023/04/22 04:13:20;;;;;;;27.33;24.33;;;;;;;;;;5020763;28;20195;-81
2023/04/22 04:15:46;;;;;;;28.60;23.50;;;;;;;;;;5047373;28;20224;-81
2023/04/22 04:18:12;;;;;;;30.13;24.63;;;;;;;;;;5037161;28;20200;-78
2023/04/22 04:20:38;;;;;;;28.10;24.70;;;;;;;;;;5053979;28;20222;-77
2023/04/22 04:23:04;;;;;;;31.80;25.77;;;;;;;;;;5053679;28;20172;-78
2023/04/22 04:25:37;;;;;;;31.23;25.53;;;;;;;;;;5037294;28;20187;-77
2023/04/22 04:28:08;;;;;;;30.90;25.53;;;;;;;;;;5054032;28;20284;-77
2023/04/22 04:30:35;;;;;;;32.97;26.17;;;;;;;;;;5054625;28;20231;-77
2023/04/22 04:33:05;;;;;;;28.53;25.40;;;;;;;;;;5035981;28;20188;-77
2023/04/22 04:35:33;;;;;;;32.00;26.67;;;;;;;;;;5053907;28;20191;-79
2023/04/22 04:37:59;;;;;;;31.33;27.20;;;;;;;;;;5053633;28;20194;-79
2023/04/22 04:40:28;;;;;;;35.83;27.37;;;;;;;;;;5036824;28;20226;-79
2023/04/22 04:42:54;;;;;;;31.67;26.63;;;;;;;;;;5053417;28;20276;-79
2023/04/22 04:45:21;;;;;;;28.83;25.73;;;;;;;;;;5037097;28;20180;-78
2023/04/22 04:47:49;;;;;;;32.97;27.90;;;;;;;;;;5023898;28;20188;-79
2023/04/22 04:50:15;;;;;;;33.03;27.53;;;;;;;;;;5020164;28;20271;-79
2023/04/22 04:52:41;;;;;;;31.30;27.27;;;;;;;;;;5033411;28;20181;-79
2023/04/22 04:55:08;;;;;;;33.53;27.93;;;;;;;;;;5033306;28;20187;-80
2023/04/22 04:57:34;;;;;;;32.97;28.57;;;;;;;;;;5047352;28;20191;-79
2023/04/22 05:00:01;;;;;;;36.03;29.50;;;;;;;;;;5053124;28;20286;-79
2023/04/22 05:02:27;;;;;;;34.80;29.10;;;;;;;;;;5018034;28;20304;-79
2023/04/22 05:04:53;;;;;;;34.10;29.03;;;;;;;;;;5033387;28;20187;-79
2023/04/22 05:07:19;;;;;;;36.10;29.83;;;;;;;;;;5017065;28;20275;-79
2023/04/22 05:09:45;;;;;;;36.17;29.90;;;;;;;;;;5033353;28;20180;-77
2023/04/22 05:12:11;;;;;;;33.90;28.23;;;;;;;;;;5033064;28;20183;-77
2023/04/22 05:14:38;;;;;;;33.10;29.00;;;;;;;;;;5055144;28;20300;-78
2023/04/22 05:17:04;;;;;;;37.43;30.20;;;;;;;;;;5038888;28;20191;-77
2023/04/22 05:19:30;;;;;;;37.57;30.33;;;;;;;;;;5032998;28;20196;-79
2023/04/22 05:21:56;;;;;;;34.97;30.20;;;;;;;;;;5006568;28;20222;-79
2023/04/22 05:24:22;;;;;;;34.93;29.53;;;;;;;;;;5019651;28;20183;-79
2023/04/22 05:26:48;;;;;;;35.53;30.87;;;;;;;;;;5019563;28;20184;-79
2023/04/22 05:29:14;;;;;;;34.93;30.67;;;;;;;;;;5054677;28;20176;-79
2023/04/22 05:31:40;;;;;;;38.57;31.23;;;;;;;;;;5055641;28;20204;-80
2023/04/22 05:34:06;;;;;;;37.80;32.13;;;;;;;;;;5055681;28;20205;-80
2023/04/22 05:36:32;;;;;;;39.57;32.23;;;;;;;;;;5038824;28;20183;-80
2023/04/22 05:38:58;;;;;;;35.83;31.67;;;;;;;;;;5027645;28;20188;-80
2023/04/22 05:41:25;;;;;;;39.47;32.73;;;;;;;;;;4999261;28;20232;-81
2023/04/22 05:43:51;;;;;;;37.33;31.20;;;;;;;;;;5018243;28;20183;-81
2023/04/22 05:46:17;;;;;;;38.20;32.27;;;;;;;;;;5046309;28;20171;-81
2023/04/22 05:48:43;;;;;;;40.87;32.70;;;;;;;;;;5045706;28;20179;-81
2023/04/22 05:51:09;;;;;;;38.00;32.27;;;;;;;;;;5075969;28;20179;-81
2023/04/22 05:53:35;;;;;;;38.53;32.93;;;;;;;;;;5044217;28;20248;-81
2023/04/22 05:56:01;;;;;;;38.80;33.17;;;;;;;;;;5058689;28;20187;-81
2023/04/22 05:58:27;;;;;;;38.13;32.57;;;;;;;;;;5058631;28;20209;-80
2023/04/22 06:00:53;;;;;;;41.73;33.43;;;;;;;;;;5041810;28;20191;-80
2023/04/22 06:03:19;;;;;;;41.43;34.23;;;;;;;;;;5058833;28;20269;-80
2023/04/22 06:05:45;;;;;;;42.67;35.80;;;;;;;;;;5041906;28;20183;-80
2023/04/22 06:08:11;;;;;;;36.77;32.83;;;;;;;;;;5042220;28;20182;-80
2023/04/22 06:10:37;;;;;;;40.63;35.40;;;;;;;;;;5042046;28;20181;-80
2023/04/22 06:13:03;;;;;;;41.23;35.40;;;;;;;;;;5041883;28;20187;-81
2023/04/22 06:15:29;;;;;;;38.60;34.40;;;;;;;;;;5019793;28;1129107;-80
2023/04/22 06:17:55;;;;;;;36.23;32.33;;;;;;;;;;5043394;28;20180;-79
2023/04/22 06:20:21;;;;;;;38.37;32.77;;;;;;;;;;5021807;28;20203;-79
2023/04/22 06:22:47;;;;;;;36.47;32.60;;;;;;;;;;5027895;28;20222;-80
2023/04/22 06:25:13;;;;;;;37.97;33.03;;;;;;;;;;5042930;28;20175;-80
2023/04/22 06:27:39;;;;;;;37.10;33.23;;;;;;;;;;5059686;28;20186;-80
2023/04/22 06:30:06;;;;;;;36.37;32.47;;;;;;;;;;5042824;28;20175;-80
2023/04/22 06:32:32;;;;;;;34.33;30.80;;;;;;;;;;5042656;28;20179;-80
2023/04/22 06:34:58;;;;;;;35.27;31.47;;;;;;;;;;5059512;28;20296;-80
2023/04/22 06:37:25;;;;;;;32.77;29.43;;;;;;;;;;5059184;28;20195;-80
2023/04/22 06:39:51;;;;;;;31.67;28.57;;;;;;;;;;5042281;28;20175;-80
2023/04/22 06:42:17;;;;;;;32.70;29.33;;;;;;;;;;5042062;28;20233;-80
2023/04/22 06:44:43;;;;;;;32.90;29.23;;;;;;;;;;5059317;28;20175;-80
2023/04/22 06:47:09;;;;;;;31.87;28.53;;;;;;;;;;5042427;28;20179;-80
2023/04/22 06:49:38;;;;;;;34.07;29.30;;;;;;;;;;5041807;28;20241;-80
2023/04/22 06:52:04;;;;;;;32.47;29.27;;;;;;;;;;5042709;28;20218;-80
2023/04/22 06:54:30;;;;;;;32.70;29.20;;;;;;;;;;5042258;28;20190;-80
2023/04/22 06:56:57;;;;;;;32.30;29.00;;;;;;;;;;5072249;28;20185;-80
2023/04/22 06:59:23;;;;;;;31.47;28.03;;;;;;;;;;5060803;28;20175;-79
2023/04/22 07:01:49;;;;;;;28.87;26.03;;;;;;;;;;5057710;28;20253;-79
2023/04/22 07:04:15;;;;;;;29.10;26.27;;;;;;;;;;5035172;28;20180;-79
2023/04/22 07:06:42;;;;;;;29.07;26.27;;;;;;;;;;5042154;28;20264;-80
2023/04/22 07:09:08;;;;;;;27.93;25.13;;;;;;;;;;5058680;28;20182;-80
2023/04/22 07:11:34;;;;;;;26.80;24.10;;;;;;;;;;5042711;28;20179;-80
2023/04/22 07:14:00;;;;;;;24.87;22.47;;;;;;;;;;5058383;28;20175;-80
2023/04/22 07:16:27;;;;;;;26.50;23.83;;;;;;;;;;5058424;28;20235;-80
2023/04/22 07:18:53;;;;;;;27.37;24.57;;;;;;;;;;5041883;28;20198;-81
2023/04/22 07:21:19;;;;;;;24.93;22.30;;;;;;;;;;5020654;28;20294;-81
2023/04/22 07:23:45;;;;;;;26.53;23.83;;;;;;;;;;5002332;28;20204;-81
2023/04/22 07:26:11;;;;;;;24.97;22.60;;;;;;;;;;5018802;28;20175;-81
2023/04/22 07:28:37;;;;;;;26.63;24.03;;;;;;;;;;5018659;28;20173;-78
2023/04/22 07:31:03;;;;;;;25.20;22.67;;;;;;;;;;5034319;28;20197;-78
2023/04/22 07:33:30;;;;;;;25.57;22.97;;;;;;;;;;5037908;28;20187;-79
2023/04/22 07:35:56;;;;;;;23.20;20.80;;;;;;;;;;5057150;28;20183;-78
2023/04/22 07:38:22;;;;;;;25.60;22.87;;;;;;;;;;5041518;28;20270;-80
2023/04/22 07:40:48;;;;;;;24.57;22.17;;;;;;;;;;5039064;28;20203;-80
2023/04/22 07:43:14;;;;;;;22.17;19.97;;;;;;;;;;5040828;28;20178;-80
2023/04/22 07:45:40;;;;;;;23.27;20.97;;;;;;;;;;5065168;28;20168;-80
2023/04/22 07:48:06;;;;;;;20.77;18.70;;;;;;;;;;5037779;28;20180;-80
2023/04/22 07:50:32;;;;;;;21.23;19.03;;;;;;;;;;5066875;28;20260;-80
2023/04/22 07:52:58;;;;;;;23.87;19.00;;;;;;;;;;5057561;28;20183;-80
2023/04/22 07:55:24;;;;;;;20.70;17.57;;;;;;;;;;5031989;28;20184;-80
2023/04/22 07:57:50;;;;;;;19.43;17.33;;;;;;;;;;5017864;28;20189;-81
2023/04/22 08:00:16;;;;;;;17.17;15.57;;;;;;;;;;5011761;28;20184;-81
2023/04/22 08:02:42;;;;;;;16.63;14.97;;;;;;;;;;5046528;28;20207;-81
2023/04/22 08:05:09;;;;;;;16.93;14.87;;;;;;;;;;5040321;28;20194;-81
2023/04/22 08:07:35;;;;;;;15.27;13.77;;;;;;;;;;5056828;28;20179;-81
2023/04/22 08:10:01;;;;;;;15.37;13.77;;;;;;;;;;5056252;28;20182;-81
2023/04/22 08:12:27;;;;;;;15.07;13.57;;;;;;;;;;5070686;28;20179;-80
2023/04/22 08:14:53;;;;;;;14.60;13.20;;;;;;;;;;5040654;28;20227;-80
2023/04/22 08:17:20;;;;;;;14.17;12.77;;;;;;;;;;5018144;28;20200;-80
2023/04/22 08:19:47;;;;;;;14.20;12.90;;;;;;;;;;5017892;28;20180;-80
2023/04/22 08:22:13;;;;;;;14.33;12.90;;;;;;;;;;5048327;28;20196;-80
2023/04/22 08:24:40;;;;;;;14.13;12.83;;;;;;;;;;5037237;28;20188;-80
2023/04/22 08:27:06;;;;;;;13.70;12.37;;;;;;;;;;5020646;28;20218;-81
2023/04/22 08:29:32;;;;;;;13.77;12.37;;;;;;;;;;5058560;28;20241;-81
2023/04/22 08:31:58;;;;;;;14.10;12.70;;;;;;;;;;5058981;28;20219;-81
2023/04/22 08:34:26;;;;;;;12.47;11.23;;;;;;;;;;5020260;28;20180;-81
2023/04/22 08:36:52;;;;;;;14.40;13.00;;;;;;;;;;5036576;28;20219;-81
2023/04/22 08:39:18;;;;;;;13.60;12.30;;;;;;;;;;5020249;28;20188;-81
2023/04/22 08:41:45;;;;;;;13.57;12.27;;;;;;;;;;5036227;28;20215;-80
2023/04/22 08:44:12;;;;;;;13.23;11.93;;;;;;;;;;5056588;28;20175;-80
2023/04/22 08:46:38;;;;;;;14.50;12.33;;;;;;;;;;5038432;28;20203;-80
2023/04/22 08:49:04;;;;;;;12.83;11.50;;;;;;;;;;5040145;28;20301;-80
2023/04/22 08:51:34;;;;;;;12.80;11.50;;;;;;;;;;5038495;28;20214;-80
2023/04/22 08:54:00;;;;;;;11.83;10.77;;;;;;;;;;5018106;28;20206;-80
2023/04/22 08:56:28;;;;;;;11.97;10.83;;;;;;;;;;5009057;28;20349;-80
2023/04/22 08:58:54;;;;;;;13.20;11.80;;;;;;;;;;5036200;28;20187;-80
2023/04/22 09:01:21;;;;;;;11.87;10.77;;;;;;;;;;5042696;28;20203;-80
2023/04/22 09:03:48;;;;;;;11.98;10.88;;;;;;;;;;5036748;28;20419;-80
2023/04/22 09:06:15;;;;;;;12.30;11.10;;;;;;;;;;5050561;28;20443;-80
2023/04/22 09:08:42;;;;;;;12.25;11.05;;;;;;;;;;5053085;28;20396;-80
2023/04/22 09:11:09;;;;;;;10.90;9.90;;;;;;;;;;5021645;28;20580;-79
2023/04/22 09:13:35;;;;;;;10.03;9.13;;;;;;;;;;5058409;28;20416;-80
2023/04/22 09:16:01;;;;;;;9.63;8.73;;;;;;;;;;5031517;28;20315;-80
2023/04/22 09:18:27;;;;;;;9.43;8.53;;;;;;;;;;5052038;28;20176;-81
2023/04/22 09:20:55;;;;;;;9.90;8.87;;;;;;;;;;5053481;28;20258;-81
2023/04/22 09:23:21;;;;;;;9.87;8.97;;;;;;;;;;5045325;28;20176;-80
2023/04/22 09:25:47;;;;;;;9.55;8.65;;;;;;;;;;5051924;28;20487;-80
2023/04/22 09:28:17;;;;;;;9.60;8.70;;;;;;;;;;5035069;28;20440;-81
2023/04/22 09:30:44;;;;;;;9.38;8.50;;;;;;;;;;5053005;28;20466;-79
2023/04/22 09:33:12;;;;;;;8.98;8.07;;;;;;;;;;5051324;28;20451;-79
2023/04/22 09:35:39;;;;;;;8.77;7.88;;;;;;;;;;5035800;28;20548;-82
2023/04/22 09:38:07;;;;;;;9.10;8.20;;;;;;;;;;5052298;28;20263;-82
2023/04/22 09:40:34;;;;;;;8.10;7.43;;;;;;;;;;5052586;28;20191;-82
2023/04/22 09:43:01;;;;;;;8.20;7.40;;;;;;;;;;5052298;28;20204;-82
2023/04/22 09:45:28;;;;;;;8.30;7.60;;;;;;;;;;5052376;28;20183;-82
2023/04/22 09:47:55;;;;;;;10.60;8.00;;;;;;;;;;5052225;28;20215;-82
2023/04/22 09:50:23;;;;;;;8.00;7.30;;;;;;;;;;5052560;28;20261;-83
2023/04/22 09:52:56;;;;;;;8.35;7.65;;;;;;;;;;5051325;28;20407;-81
2023/04/22 09:55:24;;;;;;;7.78;7.07;;;;;;;;;;5034559;28;20598;-82
2023/04/22 09:57:54;;;;;;;8.27;7.55;;;;;;;;;;5051270;28;20411;-81
2023/04/22 10:00:21;;;;;;;8.15;7.43;;;;;;;;;;5050603;28;20491;-81
2023/04/22 10:02:47;;;;;;;8.73;8.00;;;;;;;;;;5051393;28;20466;-81
2023/04/22 10:05:13;;;;;;;8.35;7.65;;;;;;;;;;5034484;28;20412;-81
2023/04/22 10:07:39;;;;;;;8.48;7.70;;;;;;;;;;5035610;28;20419;-82
2023/04/22 10:10:07;;;;;;;8.73;7.93;;;;;;;;;;5034189;28;20470;-82
2023/04/22 10:12:36;;;;;;;8.45;7.72;;;;;;;;;;5052903;28;20444;-82
2023/04/22 10:15:06;;;;;;;9.05;8.25;;;;;;;;;;5037855;28;20458;-82
2023/04/22 10:17:33;;;;;;;8.65;7.85;;;;;;;;;;5054161;28;20505;-82
2023/04/22 10:20:03;;;;;;;8.52;7.72;;;;;;;;;;5054201;28;20402;-82
2023/04/22 10:22:31;;;;;;;8.10;7.40;;;;;;;;;;5072044;28;20476;-82
2023/04/22 10:24:57;;;;;;;8.75;7.95;;;;;;;;;;5072124;28;20407;-82
2023/04/22 10:27:23;;;;;;;8.25;7.45;;;;;;;;;;5054382;28;20413;-81
2023/04/22 10:29:49;;;;;;;8.23;7.45;;;;;;;;;;5055670;28;20418;-81
2023/04/22 10:32:18;;;;;;;8.20;7.50;;;;;;;;;;5058186;28;20517;-81
2023/04/22 10:34:48;;;;;;;9.43;7.85;;;;;;;;;;5057601;28;20433;-81
2023/04/22 10:37:17;;;;;;;9.13;8.32;;;;;;;;;;5058477;28;20414;-81
2023/04/22 10:40:03;;;;;;;8.93;8.13;;;;;;;;;;5057723;28;20413;-81
2023/04/22 10:42:29;;;;;;;9.43;8.52;;;;;;;;;;5070176;28;20518;-81
2023/04/22 10:45:00;;;;;;;8.70;7.85;;;;;;;;;;5040817;28;20414;-81
2023/04/22 10:47:27;;;;;;;8.57;7.80;;;;;;;;;;5057809;28;20447;-81
2023/04/22 10:50:20;;;;;;;8.68;7.97;;;;;;;;;;5057530;28;20409;-81
2023/04/22 10:52:55;;;;;;;8.40;7.70;;;;;;;;;;5071581;28;20433;-81
2023/04/22 10:55:21;;;;;;;8.40;7.60;;;;;;;;;;5044569;28;20421;-81
2023/04/22 10:57:48;;;;;;;8.50;7.80;;;;;;;;;;5058834;28;20171;-81
2023/04/22 11:00:33;;;;;;;8.55;7.75;;;;;;;;;;5057286;28;20410;-81
2023/04/22 11:03:06;;;;;;;8.85;7.95;;;;;;;;;;5057174;28;20426;-82
2023/04/22 11:05:34;;;;;;;9.40;8.50;;;;;;;;;;5057244;28;20414;-79
2023/04/22 11:08:05;;;;;;;9.25;8.35;;;;;;;;;;5040879;28;20411;-79
2023/04/22 11:10:31;;;;;;;9.20;8.30;;;;;;;;;;5056770;28;20417;-79
2023/04/22 11:12:57;;;;;;;9.38;8.57;;;;;;;;;;5074879;28;20418;-82
2023/04/22 11:15:24;;;;;;;9.40;8.60;;;;;;;;;;5056495;28;20418;-83
2023/04/22 11:17:51;;;;;;;9.27;8.27;;;;;;;;;;5074944;28;20435;-83
2023/04/22 11:20:18;;;;;;;9.10;8.30;;;;;;;;;;5056844;28;20509;-83
2023/04/22 11:22:45;;;;;;;9.23;8.43;;;;;;;;;;5057199;28;20477;-83
2023/04/22 11:25:12;;;;;;;8.93;8.13;;;;;;;;;;5056863;28;20412;-82
2023/04/22 11:27:39;;;;;;;9.10;8.30;;;;;;;;;;5056964;28;20485;-82
2023/04/22 11:30:06;;;;;;;8.83;8.03;;;;;;;;;;5074412;28;20490;-82
2023/04/22 11:32:32;;;;;;;8.53;7.73;;;;;;;;;;5057210;28;20485;-81
2023/04/22 11:35:02;;;;;;;8.67;7.87;;;;;;;;;;5041127;28;20176;-81
2023/04/22 11:37:28;;;;;;;8.95;8.23;;;;;;;;;;5056925;28;20460;-81
2023/04/22 11:39:59;;;;;;;10.05;8.05;;;;;;;;;;5075076;28;20421;-81
2023/04/22 11:42:25;;;;;;;8.50;7.80;;;;;;;;;;5070564;28;20274;-81
2023/04/22 11:44:51;;;;;;;8.63;7.83;;;;;;;;;;5057660;28;20213;-81
2023/04/22 11:47:18;;;;;;;8.90;8.10;;;;;;;;;;5041108;28;20209;-81
2023/04/22 11:49:58;;;;;;;10.70;8.57;;;;;;;;;;5057981;28;20171;-82
2023/04/22 11:52:25;;;;;;;9.90;8.45;;;;;;;;;;5056526;28;20489;-82
2023/04/22 11:54:51;;;;;;;10.23;9.13;;;;;;;;;;5040223;28;20418;-83
2023/04/22 11:57:20;;;;;;;9.95;8.88;;;;;;;;;;5056284;28;20414;-82
2023/04/22 11:59:56;;;;;;;8.87;8.10;;;;;;;;;;5041002;28;20175;-82
2023/04/22 12:02:23;;;;;;;9.07;8.18;;;;;;;;;;5055884;28;20423;-82
2023/04/22 12:04:49;;;;;;;8.98;8.02;;;;;;;;;;5057020;28;20406;-81
2023/04/22 12:07:15;;;;;;;9.63;8.63;;;;;;;;;;5055513;28;20410;-81
2023/04/22 12:09:41;;;;;;;8.98;8.25;;;;;;;;;;5039740;28;20402;-81
2023/04/22 12:12:07;;;;;;;9.30;8.30;;;;;;;;;;5056062;28;20417;-81
2023/04/22 12:14:36;;;;;;;9.23;8.30;;;;;;;;;;5055610;28;20469;-81
2023/04/22 12:17:04;;;;;;;9.70;8.00;;;;;;;;;;5039489;28;20427;-81
2023/04/22 12:19:30;;;;;;;8.50;7.70;;;;;;;;;;5020186;28;20430;-81
2023/04/22 12:21:56;;;;;;;8.93;8.00;;;;;;;;;;5019884;28;20428;-78
2023/04/22 12:24:29;;;;;;;8.85;7.95;;;;;;;;;;5036090;28;20461;-78
2023/04/22 12:26:55;;;;;;;9.35;8.25;;;;;;;;;;5050339;28;20501;-79
2023/04/22 12:29:31;;;;;;;9.13;8.23;;;;;;;;;;5055732;28;20485;-78
2023/04/22 12:31:57;;;;;;;9.25;7.95;;;;;;;;;;5051640;28;20416;-78
2023/04/22 12:34:23;;;;;;;8.88;7.97;;;;;;;;;;5030450;28;20500;-79
2023/04/22 12:36:49;;;;;;;8.57;7.80;;;;;;;;;;5018972;28;20424;-78
2023/04/22 12:39:16;;;;;;;8.27;7.43;;;;;;;;;;5053706;28;20407;-81
2023/04/22 12:41:42;;;;;;;8.65;7.85;;;;;;;;;;5019330;28;20439;-81
2023/04/22 12:44:08;;;;;;;8.98;8.18;;;;;;;;;;5035777;28;20400;-81
2023/04/22 12:46:35;;;;;;;10.00;9.00;;;;;;;;;;5040314;28;20418;-81
2023/04/22 12:49:01;;;;;;;11.18;8.40;;;;;;;;;;5049689;28;20427;-81
2023/04/22 12:51:27;;;;;;;11.63;8.55;;;;;;;;;;5045925;28;20442;-81
2023/04/22 12:53:53;;;;;;;9.20;8.30;;;;;;;;;;5049094;28;20506;-81
2023/04/22 12:56:19;;;;;;;9.57;8.57;;;;;;;;;;5046683;28;20459;-82
2023/04/22 12:58:45;;;;;;;8.95;8.10;;;;;;;;;;5019004;28;20497;-82
2023/04/22 13:01:11;;;;;;;8.77;7.93;;;;;;;;;;5021660;28;20469;-81
2023/04/22 13:03:37;;;;;;;9.98;8.30;;;;;;;;;;5035160;28;20427;-82
2023/04/22 13:06:03;;;;;;;9.30;8.40;;;;;;;;;;5052290;28;20418;-81
2023/04/22 13:08:29;;;;;;;9.85;8.95;;;;;;;;;;5020800;28;20431;-81
2023/04/22 13:10:55;;;;;;;11.02;9.95;;;;;;;;;;5018501;28;20514;-82
2023/04/22 13:13:21;;;;;;;11.20;10.10;;;;;;;;;;5019345;28;20428;-82
2023/04/22 13:15:52;;;;;;;13.32;10.55;;;;;;;;;;5028283;28;20519;-81
2023/04/22 13:18:18;;;;;;;11.10;10.07;;;;;;;;;;5035986;28;20422;-82
2023/04/22 13:20:44;;;;;;;12.95;10.60;;;;;;;;;;5032215;28;20416;-82
2023/04/22 13:23:11;;;;;;;11.65;10.10;;;;;;;;;;5052750;28;20432;-82
2023/04/22 13:25:37;;;;;;;12.50;10.70;;;;;;;;;;5051258;28;20412;-82
2023/04/22 13:28:04;;;;;;;11.13;10.13;;;;;;;;;;5034826;28;20439;-78
2023/04/22 13:30:30;;;;;;;11.40;10.35;;;;;;;;;;5042025;23;20516;-82
2023/04/22 13:32:56;;;;;;;11.73;10.63;;;;;;;;;;5035094;28;20440;-81
2023/04/22 13:35:22;;;;;;;12.38;11.20;;;;;;;;;;5035107;28;20432;-82
2023/04/22 13:37:48;;;;;;;13.00;11.75;;;;;;;;;;5034904;28;20427;-82
2023/04/22 13:40:15;;;;;;;12.98;11.77;;;;;;;;;;5018599;28;20417;-83
2023/04/22 13:42:42;;;;;;;14.33;13.00;;;;;;;;;;5034077;28;20494;-81
2023/04/22 13:45:08;;;;;;;13.73;12.43;;;;;;;;;;5018534;28;20419;-82
2023/04/22 13:47:34;;;;;;;13.27;12.07;;;;;;;;;;5018454;28;20416;-80
2023/04/22 13:50:00;;;;;;;13.30;12.13;;;;;;;;;;5029751;28;20440;-83
2023/04/22 13:52:26;;;;;;;12.70;11.43;;;;;;;;;;5049561;28;20207;-79
2023/04/22 13:54:53;;;;;;;14.27;12.88;;;;;;;;;;5034319;28;20408;-79
2023/04/22 13:57:19;;;;;;;15.85;14.40;;;;;;;;;;5017483;28;20427;-78
2023/04/22 13:59:45;;;;;;;16.02;14.55;;;;;;;;;;5034411;28;20514;-78
2023/04/22 14:02:11;;;;;;;17.55;15.93;;;;;;;;;;5017710;28;20429;-78
2023/04/22 14:04:37;;;;;;;17.73;16.23;;;;;;;;;;5035737;28;20470;-79
2023/04/22 14:07:03;;;;;;;16.58;15.07;;;;;;;;;;5038743;28;20450;-78
2023/04/22 14:09:30;;;;;;;19.50;17.65;;;;;;;;;;5036659;28;20482;-78
2023/04/22 14:11:56;;;;;;;19.85;17.95;;;;;;;;;;5037224;28;20408;-79
2023/04/22 14:14:22;;;;;;;20.02;18.13;;;;;;;;;;5038582;28;20408;-78
2023/04/22 14:16:48;;;;;;;20.95;19.08;;;;;;;;;;5037752;28;20426;-78
2023/04/22 14:19:14;;;;;;;20.98;19.05;;;;;;;;;;5038293;28;20462;-77
2023/04/22 14:21:40;;;;;;;20.40;18.55;;;;;;;;;;5021314;28;20442;-78
2023/04/22 14:24:06;;;;;;;20.95;19.13;;;;;;;;;;5037546;28;20392;-78